Aviation Digital Data Service (ADDS)

Output produced by METARs form (0421 UTC 02 April 2015)
found at http://aviationweather.gov/adds/metars/
 
KPHF 012322Z 0200/0224 VRB03KT P6SM SKC 
     FM021200 19005KT P6SM SKC 
     FM021600 20010G18KT P6SM SCT250